createdAt,value
2023-01-03T00:01:23.958Z,3.97
2023-01-03T00:04:11.625Z,4.77
2023-01-03T00:06:58.646Z,5.27
2023-01-03T00:09:45.567Z,4.90
2023-01-03T00:12:32.550Z,3.80
2023-01-03T00:15:19.568Z,3.90
2023-01-03T00:18:06.564Z,5.00
2023-01-03T00:20:53.558Z,3.33
2023-01-03T00:23:40.495Z,4.70
2023-01-03T00:26:28.148Z,3.00
2023-01-03T00:29:16.331Z,3.33
2023-01-03T00:32:03.899Z,3.13
2023-01-03T00:34:50.823Z,2.83
2023-01-03T00:37:37.796Z,2.67
2023-01-03T00:40:24.753Z,2.80
2023-01-03T00:43:29.811Z,2.07
2023-01-03T00:46:20.202Z,3.00
2023-01-03T00:49:07.892Z,2.50
2023-01-03T00:51:54.889Z,2.97
2023-01-03T00:54:41.804Z,3.00
2023-01-03T00:57:28.721Z,3.20
2023-01-03T01:00:15.883Z,2.63
2023-01-03T01:03:02.904Z,2.10
2023-01-03T01:05:49.940Z,2.17
2023-01-03T01:08:36.850Z,2.00
2023-01-03T01:11:25.268Z,2.00
2023-01-03T01:14:22.385Z,2.00
2023-01-03T01:17:09.599Z,2.00
2023-01-03T01:19:56.578Z,2.07
2023-01-03T01:22:43.584Z,1.80
2023-01-03T01:25:34.092Z,1.70
2023-01-03T01:28:20.991Z,1.43
2023-01-03T01:31:09.194Z,1.70
2023-01-03T01:33:56.588Z,1.47
2023-01-03T01:36:45.006Z,1.27
2023-01-03T01:39:31.986Z,1.80
2023-01-03T01:42:37.289Z,1.50
2023-01-03T01:45:24.278Z,1.20
2023-01-03T01:48:13.233Z,1.67
2023-01-03T01:51:00.317Z,1.60
2023-01-03T01:53:47.434Z,2.17
2023-01-03T01:56:39.569Z,1.40
2023-01-03T01:59:28.310Z,1.80
2023-01-03T02:02:19.930Z,1.17
2023-01-03T02:05:09.391Z,1.30
2023-01-03T02:07:57.140Z,1.13
2023-01-03T02:10:49.820Z,1.47
2023-01-03T02:13:36.657Z,1.10
2023-01-03T02:17:00.281Z,1.50
2023-01-03T02:19:59.297Z,1.20
2023-01-03T02:23:17.299Z,1.00
2023-01-03T02:26:16.116Z,0.90
2023-01-03T02:29:15.355Z,1.37
2023-01-03T02:32:14.899Z,1.00
2023-01-03T02:35:24.519Z,0.80
2023-01-03T02:38:23.829Z,1.03
2023-01-03T02:41:26.129Z,0.90
2023-01-03T02:44:20.324Z,0.80
2023-01-03T02:47:11.919Z,1.23
2023-01-03T02:50:03.161Z,0.80
2023-01-03T02:52:54.296Z,1.00
2023-01-03T02:55:43.184Z,0.77
2023-01-03T02:58:33.828Z,0.80
2023-01-03T03:01:21.146Z,0.83
2023-01-03T03:04:08.201Z,1.00
2023-01-03T03:07:07.830Z,2.33
2023-01-03T03:10:16.686Z,0.80
2023-01-03T03:13:24.771Z,0.73
2023-01-03T03:16:40.382Z,0.83
2023-01-03T03:19:53.723Z,0.80
2023-01-03T03:23:11.470Z,0.80
2023-01-03T03:26:04.182Z,2.20
2023-01-03T03:28:56.229Z,0.70
2023-01-03T03:31:46.988Z,0.60
2023-01-03T03:34:38.120Z,0.50
2023-01-03T03:37:27.826Z,0.80
2023-01-03T03:40:33.347Z,0.50
2023-01-03T03:43:46.856Z,0.63
2023-01-03T03:46:47.710Z,0.60
2023-01-03T03:49:41.773Z,0.63
2023-01-03T03:52:32.610Z,1.67
2023-01-03T03:55:25.684Z,0.70
2023-01-03T03:58:20.309Z,0.60
2023-01-03T04:01:10.833Z,0.60
2023-01-03T04:04:03.485Z,0.50
2023-01-03T04:06:52.040Z,0.60
2023-01-03T04:09:39.467Z,0.80
2023-01-03T04:12:26.563Z,1.00
2023-01-03T04:15:14.893Z,0.47
2023-01-03T04:18:02.540Z,0.70
2023-01-03T04:20:49.523Z,0.40
2023-01-03T04:23:36.434Z,0.60
2023-01-03T04:26:23.414Z,0.60
2023-01-03T04:29:11.042Z,0.57
2023-01-03T04:31:58.021Z,0.60
2023-01-03T04:34:45.132Z,0.93
2023-01-03T04:37:32.537Z,0.57
2023-01-03T04:40:19.443Z,1.17
2023-01-03T04:43:25.498Z,0.50
2023-01-03T04:46:12.471Z,0.50
2023-01-03T04:49:00.356Z,0.53
2023-01-03T04:51:47.322Z,0.60
2023-01-03T04:54:34.272Z,0.63
2023-01-03T04:57:21.203Z,0.47
2023-01-03T05:00:09.019Z,0.60
2023-01-03T05:02:55.960Z,0.50
2023-01-03T05:05:42.963Z,0.93
2023-01-03T05:08:30.020Z,1.20
2023-01-03T05:11:16.951Z,0.80
2023-01-03T05:14:06.909Z,0.77
2023-01-03T05:16:56.252Z,0.50
2023-01-03T05:20:01.937Z,0.70
2023-01-03T05:23:07.335Z,0.80
2023-01-03T05:25:54.265Z,0.70
2023-01-03T05:28:42.858Z,0.83
2023-01-03T05:31:29.812Z,0.80
2023-01-03T05:34:16.875Z,0.70
2023-01-03T05:37:03.836Z,0.60
2023-01-03T05:39:50.735Z,0.70
2023-01-03T05:42:37.715Z,0.90
2023-01-03T05:45:27.218Z,0.70
2023-01-03T05:48:14.148Z,0.93
2023-01-03T05:51:01.058Z,0.60
2023-01-03T05:53:48.005Z,0.70
2023-01-03T05:56:35.021Z,0.63
2023-01-03T05:59:22.783Z,0.63
2023-01-03T06:02:09.900Z,0.63
2023-01-03T06:04:56.917Z,0.60
2023-01-03T06:07:43.834Z,0.50
2023-01-03T06:10:30.778Z,0.90
2023-01-03T06:13:18.180Z,0.90
2023-01-03T06:16:29.764Z,0.80
2023-01-03T06:19:16.777Z,0.50
2023-01-03T06:22:10.219Z,0.83
2023-01-03T06:24:59.453Z,0.53
2023-01-03T06:27:46.783Z,0.60
2023-01-03T06:30:33.778Z,0.70
2023-01-03T06:33:20.900Z,0.60
2023-01-03T06:36:13.547Z,0.70
2023-01-03T06:39:00.734Z,0.70
2023-01-03T06:41:47.660Z,0.60
2023-01-03T06:44:34.571Z,0.70
2023-01-03T06:47:39.927Z,0.80
2023-01-03T06:50:45.505Z,0.60
2023-01-03T06:53:36.467Z,0.90
2023-01-03T06:56:25.858Z,0.60
2023-01-03T06:59:12.802Z,0.83
2023-01-03T07:01:59.942Z,0.73
2023-01-03T07:04:46.985Z,0.87
2023-01-03T07:07:33.932Z,0.90
2023-01-03T07:10:20.865Z,0.60
2023-01-03T07:13:26.353Z,0.70
2023-01-03T07:16:15.000Z,0.77
2023-01-03T07:19:02.668Z,0.80
2023-01-03T07:21:49.594Z,0.63
2023-01-03T07:24:36.546Z,0.60
2023-01-03T07:27:23.491Z,1.63
2023-01-03T07:30:10.900Z,0.90
2023-01-03T07:32:57.822Z,1.00
2023-01-03T07:35:45.378Z,0.70
2023-01-03T07:38:32.389Z,0.70
2023-01-03T07:41:19.436Z,0.80
2023-01-03T07:44:06.394Z,0.70
2023-01-03T07:46:53.365Z,0.70
2023-01-03T07:49:40.363Z,0.70
2023-01-03T07:52:27.744Z,0.60
2023-01-03T07:55:14.802Z,1.07
2023-01-03T07:58:01.723Z,0.70
2023-01-03T08:00:48.645Z,0.70
2023-01-03T08:03:36.924Z,0.70
2023-01-03T08:06:24.568Z,0.90
2023-01-03T08:09:30.147Z,0.90
2023-01-03T08:12:35.637Z,0.90
2023-01-03T08:15:22.578Z,1.00
2023-01-03T08:18:09.527Z,1.00
2023-01-03T08:20:57.324Z,1.67
2023-01-03T08:23:44.574Z,0.70
2023-01-03T08:26:31.512Z,0.90
2023-01-03T08:29:18.486Z,0.80
2023-01-03T08:32:06.829Z,0.90
2023-01-03T08:34:54.415Z,0.90
2023-01-03T08:37:43.623Z,1.10
2023-01-03T08:40:36.707Z,0.93
2023-01-03T08:43:30.497Z,1.07
2023-01-03T08:46:18.783Z,0.80
2023-01-03T08:49:05.803Z,0.90
2023-01-03T08:51:52.743Z,0.90
2023-01-03T08:54:39.633Z,0.90
2023-01-03T08:57:26.615Z,1.10
2023-01-03T09:00:14.651Z,0.97
2023-01-03T09:03:01.728Z,1.20
2023-01-03T09:05:48.803Z,1.30
2023-01-03T09:08:36.063Z,1.10
2023-01-03T09:11:23.017Z,1.23
2023-01-03T09:14:09.996Z,1.00
2023-01-03T09:16:57.048Z,1.27
2023-01-03T09:19:44.039Z,1.10
2023-01-03T09:22:30.977Z,0.87
2023-01-03T09:25:18.947Z,1.20
2023-01-03T09:28:05.893Z,1.10
2023-01-03T09:30:53.631Z,0.97
2023-01-03T09:33:40.705Z,1.10
2023-01-03T09:36:27.623Z,1.23
2023-01-03T09:39:14.611Z,1.43
2023-01-03T09:42:20.454Z,1.20
2023-01-03T09:45:11.244Z,1.20
2023-01-03T09:48:01.097Z,1.50
2023-01-03T09:51:17.176Z,1.23
2023-01-03T09:54:15.472Z,4.30
2023-01-03T09:57:28.333Z,18.33
2023-01-03T10:00:46.158Z,11.20
2023-01-03T10:03:52.216Z,3.43
2023-01-03T10:06:55.343Z,3.13
2023-01-03T10:09:57.166Z,2.00
2023-01-03T10:13:02.669Z,1.70
2023-01-03T10:15:58.624Z,1.70
2023-01-03T10:19:16.677Z,1.50
2023-01-03T10:22:20.284Z,1.73
2023-01-03T10:25:07.263Z,1.80
2023-01-03T10:28:01.137Z,1.70
2023-01-03T10:31:07.656Z,1.63
2023-01-03T10:33:57.424Z,1.30
2023-01-03T10:36:44.335Z,1.80
2023-01-03T10:39:32.225Z,1.57
2023-01-03T10:42:19.481Z,2.40
2023-01-03T10:45:19.643Z,2.47
2023-01-03T10:48:06.556Z,3.50
2023-01-03T10:50:53.906Z,2.23
2023-01-03T10:53:42.385Z,2.10
2023-01-03T10:56:30.738Z,2.47
2023-01-03T10:59:26.614Z,2.60
2023-01-03T11:02:18.978Z,2.47
2023-01-03T11:05:15.342Z,2.57
2023-01-03T11:08:04.728Z,2.40
2023-01-03T11:10:59.725Z,2.90
2023-01-03T11:13:46.713Z,2.20
2023-01-03T11:16:33.677Z,1.90
2023-01-03T11:19:20.944Z,2.20
2023-01-03T11:22:38.182Z,2.27
2023-01-03T11:25:43.671Z,2.03
2023-01-03T11:29:08.690Z,2.17
2023-01-03T11:31:59.165Z,2.20
2023-01-03T11:38:51.079Z,2.40
2023-01-03T11:41:47.136Z,2.17
2023-01-03T11:44:42.810Z,1.93
2023-01-03T11:47:44.295Z,2.50
2023-01-03T11:51:09.685Z,2.30
2023-01-03T11:54:09.023Z,2.37
2023-01-03T11:57:03.150Z,2.10
2023-01-03T12:00:02.306Z,2.57
2023-01-03T12:03:04.463Z,2.57
2023-01-03T12:06:15.560Z,2.40
2023-01-03T12:09:21.219Z,2.10
2023-01-03T12:12:28.168Z,2.40
2023-01-03T12:15:22.917Z,2.20
2023-01-03T12:18:20.714Z,2.20
2023-01-03T12:21:14.907Z,2.57
2023-01-03T12:24:20.437Z,2.30
2023-01-03T12:27:29.121Z,2.20
2023-01-03T12:30:41.052Z,2.30
2023-01-03T12:33:48.835Z,2.40
2023-01-03T12:37:08.406Z,2.40
2023-01-03T12:40:00.005Z,2.40
2023-01-03T12:42:59.103Z,1.90
2023-01-03T12:45:54.090Z,1.87
2023-01-03T12:49:32.002Z,1.83
2023-01-03T12:52:24.370Z,2.43
2023-01-03T12:55:28.531Z,2.33
2023-01-03T12:58:27.312Z,1.87
2023-01-03T13:01:18.033Z,1.97
2023-01-03T13:04:19.250Z,1.90
2023-01-03T13:07:20.708Z,2.07
2023-01-03T13:10:16.566Z,2.53
2023-01-03T13:13:04.902Z,2.13
2023-01-03T13:15:53.645Z,1.93
2023-01-03T13:18:40.766Z,2.77
2023-01-03T13:21:52.620Z,2.20
2023-01-03T13:24:52.789Z,2.20
2023-01-03T13:27:50.344Z,2.27
2023-01-03T13:30:38.648Z,2.17
2023-01-03T13:33:25.732Z,2.70
2023-01-03T13:36:12.833Z,4.63
2023-01-03T13:39:00.680Z,2.97
2023-01-03T13:41:53.775Z,1.90
2023-01-03T13:44:40.854Z,2.23
2023-01-03T13:47:40.712Z,2.20
2023-01-03T13:50:32.520Z,2.10
2023-01-03T13:53:19.497Z,2.17
2023-01-03T13:56:15.628Z,2.20
2023-01-03T13:59:19.419Z,2.30
2023-01-03T14:02:06.458Z,2.20
2023-01-03T14:05:15.121Z,2.00
2023-01-03T14:08:21.043Z,2.03
2023-01-03T14:11:31.343Z,1.77
2023-01-03T14:14:23.645Z,1.80
2023-01-03T14:17:28.140Z,2.00
2023-01-03T14:20:24.190Z,2.10
2023-01-03T14:23:48.787Z,2.00
2023-01-03T14:26:23.490Z,2.47
2023-01-03T14:29:17.691Z,1.87
2023-01-03T14:32:04.953Z,1.60
2023-01-03T14:34:52.639Z,1.90
2023-01-03T14:37:46.532Z,1.43
2023-01-03T14:40:33.616Z,1.63
2023-01-03T14:43:21.761Z,1.70
2023-01-03T14:46:11.981Z,1.60
2023-01-03T14:49:03.687Z,1.63
2023-01-03T14:51:56.644Z,2.20
2023-01-03T14:54:50.668Z,1.50
2023-01-03T14:57:39.442Z,1.60
2023-01-03T15:00:34.455Z,1.90
2023-01-03T15:03:22.070Z,2.13
2023-01-03T15:06:28.686Z,1.80
2023-01-03T15:09:22.368Z,1.37
2023-01-03T15:12:13.285Z,1.40
2023-01-03T15:15:08.561Z,1.50
2023-01-03T15:17:59.803Z,1.27
2023-01-03T15:20:50.593Z,1.53
2023-01-03T15:23:45.406Z,3.10
2023-01-03T15:26:46.188Z,1.50
2023-01-03T15:29:44.249Z,1.67
2023-01-03T15:33:05.462Z,1.83
2023-01-03T15:35:54.197Z,1.40
2023-01-03T15:38:47.169Z,1.70
2023-01-03T15:42:19.720Z,1.93
2023-01-03T15:44:59.843Z,2.00
2023-01-03T15:47:48.943Z,2.00
2023-01-03T15:50:49.192Z,1.60
2023-01-03T15:53:43.661Z,1.60
2023-01-03T15:56:35.373Z,1.80
2023-01-03T15:59:25.735Z,1.70
2023-01-03T16:02:18.613Z,2.03
2023-01-03T16:05:08.159Z,2.30
2023-01-03T16:07:55.066Z,2.37
2023-01-03T16:10:42.064Z,2.50
2023-01-03T16:13:34.585Z,2.00
2023-01-03T16:16:32.047Z,3.17
2023-01-03T16:19:21.456Z,2.30
2023-01-03T16:22:40.038Z,3.87
2023-01-03T16:25:22.063Z,2.30
2023-01-03T16:28:12.487Z,2.70
2023-01-03T16:31:13.675Z,2.00
2023-01-03T16:34:02.449Z,1.93
2023-01-03T16:36:49.839Z,2.40
2023-01-03T16:39:38.857Z,2.17
2023-01-03T16:42:29.369Z,2.20
2023-01-03T16:45:17.383Z,2.93
2023-01-03T16:48:04.642Z,3.80
2023-01-03T16:50:55.015Z,2.90
2023-01-03T16:53:41.970Z,3.60
2023-01-03T16:56:29.072Z,3.20
2023-01-03T16:59:17.418Z,2.80
2023-01-03T17:02:04.525Z,2.80
2023-01-03T17:04:51.885Z,2.53
2023-01-03T17:07:39.911Z,2.83
2023-01-03T17:10:29.984Z,2.80
2023-01-03T17:13:27.226Z,2.90
2023-01-03T17:16:17.403Z,3.63
2023-01-03T17:19:04.352Z,3.13
2023-01-03T17:21:51.775Z,2.90
2023-01-03T17:24:39.569Z,2.80
2023-01-03T17:27:31.986Z,4.70
2023-01-03T17:30:22.140Z,5.17
2023-01-03T17:33:14.788Z,4.33
2023-01-03T17:36:01.860Z,4.10
2023-01-03T17:38:49.965Z,4.20
2023-01-03T17:41:56.914Z,3.70
2023-01-03T17:45:07.030Z,3.97
2023-01-03T17:48:12.584Z,3.47
2023-01-03T17:51:01.708Z,3.33
2023-01-03T17:53:50.843Z,3.83
2023-01-03T17:56:39.284Z,4.00
2023-01-03T17:59:26.571Z,3.60
2023-01-03T18:02:23.281Z,3.40
2023-01-03T18:05:26.094Z,4.10
2023-01-03T18:08:20.790Z,4.07
2023-01-03T18:11:12.306Z,4.60
2023-01-03T18:13:59.341Z,4.30
2023-01-03T18:16:51.508Z,4.80
2023-01-03T18:19:41.740Z,4.67
2023-01-03T18:22:29.029Z,4.80
2023-01-03T18:25:22.356Z,4.87
2023-01-03T18:28:11.011Z,5.50
2023-01-03T18:30:58.149Z,4.73
2023-01-03T18:33:45.543Z,5.63
2023-01-03T18:36:42.577Z,6.43
2023-01-03T18:39:30.130Z,6.20
2023-01-03T18:42:35.939Z,6.47
2023-01-03T18:45:22.980Z,6.23
2023-01-03T18:48:21.302Z,6.50
2023-01-03T18:51:14.646Z,7.30
2023-01-03T18:54:01.607Z,6.20
2023-01-03T18:56:48.632Z,7.30
2023-01-03T18:59:35.569Z,6.67
2023-01-03T19:02:23.302Z,7.93
2023-01-03T19:05:10.435Z,8.37
2023-01-03T19:07:58.375Z,8.87
2023-01-03T19:10:45.526Z,8.03
2023-01-03T19:13:50.172Z,7.93
2023-01-03T19:16:38.451Z,7.60
2023-01-03T19:19:25.477Z,7.87
2023-01-03T19:22:17.557Z,8.00
2023-01-03T19:25:07.484Z,7.13
2023-01-03T19:27:56.715Z,6.97
2023-01-03T19:30:46.436Z,7.90
2023-01-03T19:33:33.383Z,9.03
2023-01-03T19:36:22.209Z,8.73
2023-01-03T19:39:09.568Z,8.93
2023-01-03T19:42:18.057Z,8.63
2023-01-03T19:45:17.358Z,8.87
2023-01-03T19:48:19.834Z,12.40
2023-01-03T19:51:06.983Z,12.30
2023-01-03T19:53:53.986Z,12.07
2023-01-03T19:56:40.929Z,11.60
2023-01-03T19:59:36.295Z,9.77
2023-01-03T20:02:32.336Z,10.67
2023-01-03T20:05:30.245Z,10.83
2023-01-03T20:08:17.185Z,11.43
2023-01-03T20:11:04.311Z,14.30
2023-01-03T20:13:52.784Z,13.27
2023-01-03T20:16:39.787Z,14.00
2023-01-03T20:19:29.837Z,16.63
2023-01-03T20:22:53.505Z,16.27
2023-01-03T20:25:29.323Z,17.33
2023-01-03T20:28:29.189Z,16.10
2023-01-03T20:31:20.309Z,15.90
2023-01-03T20:34:09.756Z,12.90
2023-01-03T20:36:56.728Z,13.20
2023-01-03T20:39:44.613Z,13.10
2023-01-03T20:42:31.584Z,11.83
2023-01-03T20:45:19.387Z,15.13
2023-01-03T20:48:10.203Z,12.90
2023-01-03T20:50:57.165Z,13.23
2023-01-03T20:53:47.847Z,11.43
2023-01-03T20:56:37.682Z,11.33
2023-01-03T20:59:24.973Z,10.87
2023-01-03T21:02:12.410Z,11.40
2023-01-03T21:04:59.425Z,15.37
2023-01-03T21:08:05.326Z,12.77
2023-01-03T21:10:55.291Z,13.63
2023-01-03T21:13:42.393Z,12.93
2023-01-03T21:16:37.913Z,13.13
2023-01-03T21:19:25.008Z,10.17
2023-01-03T21:22:19.460Z,11.00
2023-01-03T21:25:09.173Z,9.77
2023-01-03T21:27:56.310Z,9.47
2023-01-03T21:30:43.544Z,9.97
2023-01-03T21:33:30.618Z,11.20
2023-01-03T21:36:25.392Z,10.80
2023-01-03T21:39:12.805Z,10.80
2023-01-03T21:42:32.285Z,11.80
2023-01-03T21:45:19.332Z,11.43
2023-01-03T21:48:09.772Z,12.13
2023-01-03T21:50:56.729Z,14.93
2023-01-03T21:53:44.172Z,14.97
2023-01-03T21:56:31.151Z,18.00
2023-01-03T21:59:18.191Z,18.17
2023-01-03T22:02:23.828Z,16.00
2023-01-03T22:05:10.799Z,14.43
2023-01-03T22:07:57.953Z,11.60
2023-01-03T22:10:48.651Z,10.93
2023-01-03T22:13:35.839Z,13.10
2023-01-03T22:16:22.896Z,13.90
2023-01-03T22:19:09.921Z,14.03
2023-01-03T22:21:56.865Z,10.57
2023-01-03T22:24:44.111Z,15.40
2023-01-03T22:27:31.168Z,9.93
2023-01-03T22:30:19.529Z,9.17
2023-01-03T22:33:06.539Z,8.17
2023-01-03T22:35:53.520Z,8.53
2023-01-03T22:38:43.896Z,8.77
2023-01-03T22:41:30.968Z,9.90
2023-01-03T22:44:18.032Z,9.13
2023-01-03T22:47:05.041Z,8.93
2023-01-03T22:49:52.061Z,8.97
2023-01-03T22:52:40.103Z,9.20
2023-01-03T22:55:32.061Z,8.97
2023-01-03T22:58:19.397Z,9.07
2023-01-03T23:01:12.984Z,9.67
2023-01-03T23:04:01.111Z,12.37
2023-01-03T23:06:48.573Z,11.27
2023-01-03T23:09:35.629Z,13.30
2023-01-03T23:12:40.947Z,8.47
2023-01-03T23:15:30.307Z,8.63
2023-01-03T23:18:17.277Z,7.80
2023-01-03T23:21:05.440Z,7.93
2023-01-03T23:23:52.522Z,10.77
2023-01-03T23:26:39.546Z,10.37
2023-01-03T23:29:26.573Z,7.83
2023-01-03T23:32:13.549Z,9.10
2023-01-03T23:35:00.593Z,7.97
2023-01-03T23:37:47.990Z,7.87
2023-01-03T23:40:39.477Z,7.07
2023-01-03T23:43:27.396Z,7.50
2023-01-03T23:46:17.400Z,8.27
2023-01-03T23:49:04.655Z,7.70
2023-01-03T23:51:51.621Z,9.10
2023-01-03T23:54:38.616Z,11.77
2023-01-03T23:57:25.568Z,11.20
